createdAt,value
2023-04-30T00:02:50.580Z,10.30
2023-04-30T00:06:59.226Z,10.30
2023-04-30T00:11:07.829Z,10.20
2023-04-30T00:15:16.443Z,10.20
2023-04-30T00:19:25.197Z,10.10
2023-04-30T00:23:33.828Z,10.10
2023-04-30T00:27:42.655Z,10.00
2023-04-30T00:31:51.275Z,10.00
2023-04-30T00:35:59.907Z,9.90
2023-04-30T00:40:29.442Z,9.90
2023-04-30T00:44:38.058Z,9.90
2023-04-30T00:48:46.786Z,9.90
2023-04-30T00:53:14.870Z,9.90
2023-04-30T00:57:24.321Z,9.90
2023-04-30T01:01:33.715Z,9.70
2023-04-30T01:05:42.381Z,9.70
2023-04-30T01:09:51.992Z,9.60
2023-04-30T01:14:16.138Z,9.50
2023-04-30T01:23:42.549Z,9.60
2023-04-30T01:28:17.150Z,9.60
2023-04-30T01:32:25.791Z,9.60
2023-04-30T01:37:01.032Z,9.50
2023-04-30T01:41:32.203Z,9.40
2023-04-30T01:46:15.801Z,9.40
2023-04-30T01:50:27.541Z,9.30
2023-04-30T01:54:42.153Z,9.30
2023-04-30T01:58:53.097Z,9.30
2023-04-30T02:03:02.048Z,9.20
2023-04-30T02:07:10.762Z,9.20
2023-04-30T02:11:19.310Z,9.10
2023-04-30T02:15:28.018Z,9.10
2023-04-30T02:19:36.763Z,9.10
2023-04-30T02:23:45.937Z,9.10
2023-04-30T02:27:54.628Z,9.00
2023-04-30T02:32:03.416Z,9.00
2023-04-30T02:36:12.015Z,8.90
2023-04-30T02:40:20.616Z,8.90
2023-04-30T02:44:30.359Z,8.70
2023-04-30T02:48:38.914Z,8.70
2023-04-30T02:52:47.925Z,8.70
2023-04-30T02:57:16.012Z,8.70
2023-04-30T03:01:24.769Z,8.70
2023-04-30T03:05:33.692Z,8.70
2023-04-30T03:09:42.779Z,8.70
2023-04-30T03:13:51.643Z,8.70
2023-04-30T03:18:00.313Z,8.70
2023-04-30T03:22:08.951Z,8.70
2023-04-30T03:26:17.939Z,8.70
2023-04-30T03:30:26.573Z,8.60
2023-04-30T03:34:35.300Z,8.60
2023-04-30T03:38:43.937Z,8.70
2023-04-30T03:43:12.840Z,8.60
2023-04-30T03:47:22.363Z,8.60
2023-04-30T03:51:31.219Z,8.50
2023-04-30T03:55:40.082Z,8.40
2023-04-30T03:59:48.934Z,8.40
2023-04-30T04:03:57.631Z,8.20
2023-04-30T04:08:06.865Z,8.20
2023-04-30T04:12:15.491Z,8.20
2023-04-30T04:16:24.154Z,8.20
2023-04-30T04:20:32.957Z,8.20
2023-04-30T04:24:41.788Z,8.20
2023-04-30T04:28:50.348Z,8.20
2023-04-30T04:33:00.541Z,8.20
2023-04-30T04:37:10.043Z,8.30
2023-04-30T04:41:18.857Z,8.30
2023-04-30T04:45:27.485Z,8.20
2023-04-30T04:49:36.114Z,8.20
2023-04-30T04:53:44.689Z,8.20
2023-04-30T04:57:53.371Z,8.20
2023-04-30T05:02:02.196Z,8.20
2023-04-30T05:06:10.857Z,8.20
2023-04-30T05:10:19.567Z,8.20
2023-04-30T05:14:28.124Z,8.30
2023-04-30T05:18:36.745Z,8.30
2023-04-30T05:22:45.402Z,8.30
2023-04-30T05:26:54.020Z,8.40
2023-04-30T05:31:02.712Z,8.40
2023-04-30T05:35:12.185Z,8.40
2023-04-30T05:39:20.993Z,8.30
2023-04-30T05:43:29.617Z,8.40
2023-04-30T05:47:38.277Z,8.40
2023-04-30T05:51:46.981Z,8.50
2023-04-30T05:55:55.711Z,8.50
2023-04-30T06:00:06.195Z,8.60
2023-04-30T06:04:14.915Z,8.60
2023-04-30T06:08:23.646Z,8.60
2023-04-30T06:12:32.861Z,8.70
2023-04-30T06:16:41.542Z,8.80
2023-04-30T06:20:50.152Z,8.90
2023-04-30T06:24:58.779Z,8.90
2023-04-30T06:29:07.508Z,9.00
2023-04-30T06:33:16.155Z,9.00
2023-04-30T06:37:24.869Z,9.10
2023-04-30T06:41:33.497Z,9.20
2023-04-30T06:45:42.227Z,9.40
2023-04-30T06:49:50.853Z,9.50
2023-04-30T06:53:59.736Z,9.60
2023-04-30T06:58:08.425Z,9.70
2023-04-30T07:02:17.176Z,9.80
2023-04-30T07:06:38.436Z,9.90
2023-04-30T07:10:48.436Z,10.00
2023-04-30T07:14:57.164Z,10.10
2023-04-30T07:19:06.099Z,10.30
2023-04-30T07:23:19.140Z,10.40
2023-04-30T07:27:29.907Z,10.50
2023-04-30T07:31:38.630Z,10.60
2023-04-30T07:35:47.426Z,10.80
2023-04-30T07:40:25.401Z,10.90
2023-04-30T07:44:26.242Z,11.00
2023-04-30T07:48:43.769Z,11.10
2023-04-30T07:52:50.970Z,11.20
2023-04-30T07:56:59.615Z,11.30
2023-04-30T08:01:08.211Z,11.50
2023-04-30T08:05:19.877Z,11.60
2023-04-30T08:09:28.661Z,11.60
2023-04-30T08:13:37.395Z,11.70
2023-04-30T08:17:46.151Z,11.90
2023-04-30T08:21:54.915Z,12.10
2023-04-30T08:26:03.587Z,12.20
2023-04-30T08:30:16.341Z,12.40
2023-04-30T08:34:24.874Z,12.50
2023-04-30T08:38:33.481Z,12.70
2023-04-30T08:42:45.175Z,12.90
2023-04-30T08:46:56.219Z,13.10
2023-04-30T08:51:05.407Z,13.20
2023-04-30T08:55:14.130Z,13.30
2023-04-30T08:59:22.713Z,13.50
2023-04-30T09:03:33.072Z,13.60
2023-04-30T09:08:01.090Z,13.80
2023-04-30T09:11:54.361Z,14.00
2023-04-30T09:16:03.147Z,14.10
2023-04-30T09:20:13.934Z,14.30
2023-04-30T09:24:24.800Z,14.40
2023-04-30T09:28:33.492Z,14.70
2023-04-30T09:32:57.172Z,14.90
2023-04-30T09:37:06.215Z,14.90
2023-04-30T09:41:23.540Z,15.00
2023-04-30T09:45:50.783Z,15.20
2023-04-30T09:50:01.346Z,15.50
2023-04-30T09:54:12.564Z,15.60
2023-04-30T09:58:22.683Z,15.70
2023-04-30T10:02:32.588Z,15.90
2023-04-30T10:06:43.856Z,16.00
2023-04-30T10:10:55.631Z,16.10
2023-04-30T10:15:23.643Z,16.30
2023-04-30T10:19:34.783Z,16.40
2023-04-30T10:23:48.253Z,16.60
2023-04-30T10:27:57.473Z,16.60
2023-04-30T10:32:06.933Z,16.40
2023-04-30T10:36:18.008Z,16.70
2023-04-30T10:40:29.591Z,17.00
2023-04-30T10:44:40.009Z,17.10
2023-04-30T10:48:48.750Z,17.10
2023-04-30T10:53:03.984Z,17.20
2023-04-30T10:57:20.616Z,17.30
2023-04-30T11:01:31.017Z,17.40
2023-04-30T11:05:41.120Z,17.50
2023-04-30T11:09:49.988Z,17.50
2023-04-30T11:14:02.264Z,17.60
2023-04-30T11:18:11.205Z,17.80
2023-04-30T11:22:23.192Z,17.90
2023-04-30T11:26:33.318Z,18.00
2023-04-30T11:30:52.758Z,18.20
2023-04-30T11:35:03.899Z,18.30
2023-04-30T11:39:14.294Z,18.20
2023-04-30T11:43:27.855Z,18.20
2023-04-30T11:47:42.545Z,18.30
2023-04-30T11:51:52.445Z,18.30
2023-04-30T11:56:06.270Z,18.40
2023-04-30T12:00:20.418Z,18.30
2023-04-30T12:04:29.249Z,18.30
2023-04-30T12:08:38.730Z,18.50
2023-04-30T12:12:50.755Z,18.60
2023-04-30T12:17:00.250Z,18.50
2023-04-30T12:21:09.595Z,18.50
2023-04-30T12:25:20.516Z,18.40
2023-04-30T12:29:29.318Z,18.30
2023-04-30T12:33:38.128Z,18.40
2023-04-30T12:37:53.591Z,18.40
2023-04-30T12:42:03.551Z,18.50
2023-04-30T12:46:12.390Z,18.70
2023-04-30T12:50:23.487Z,18.80
2023-04-30T12:54:33.560Z,18.80
2023-04-30T12:58:44.988Z,18.90
2023-04-30T13:03:06.180Z,19.00
2023-04-30T13:07:14.889Z,19.00
2023-04-30T13:11:24.380Z,18.80
2023-04-30T13:15:34.088Z,18.70
2023-04-30T13:19:42.849Z,18.90
2023-04-30T13:24:10.793Z,19.00
2023-04-30T13:28:19.488Z,19.20
2023-04-30T13:32:28.698Z,19.20
2023-04-30T13:36:41.066Z,19.20
2023-04-30T13:40:50.258Z,19.30
2023-04-30T13:44:58.962Z,19.40
2023-04-30T13:49:07.626Z,19.20
2023-04-30T13:53:16.310Z,18.90
2023-04-30T13:57:25.464Z,18.80
2023-04-30T14:01:34.209Z,18.80
2023-04-30T14:05:42.844Z,18.80
2023-04-30T14:09:51.486Z,19.00
2023-04-30T14:14:00.085Z,19.30
2023-04-30T14:18:08.805Z,19.00
2023-04-30T14:22:17.461Z,18.70
2023-04-30T14:26:26.212Z,18.40
2023-04-30T14:30:34.933Z,18.40
2023-04-30T14:34:44.785Z,18.60
2023-04-30T14:38:54.051Z,18.80
2023-04-30T14:43:02.762Z,18.70
2023-04-30T14:47:11.702Z,18.70
2023-04-30T14:51:25.853Z,18.90
2023-04-30T14:55:35.090Z,18.90
2023-04-30T14:59:43.645Z,18.80
2023-04-30T15:03:53.263Z,18.80
2023-04-30T15:08:02.112Z,18.70
2023-04-30T15:12:11.168Z,18.50
2023-04-30T15:16:19.926Z,18.60
2023-04-30T15:20:28.713Z,18.70
2023-04-30T15:24:37.351Z,18.70
2023-04-30T15:28:46.075Z,18.80
2023-04-30T15:33:03.396Z,18.80
2023-04-30T15:37:12.246Z,18.90
2023-04-30T15:41:21.796Z,18.90
2023-04-30T15:45:30.612Z,18.80
2023-04-30T15:49:39.246Z,18.80
2023-04-30T15:53:47.867Z,18.80
2023-04-30T15:57:56.503Z,18.80
2023-04-30T16:02:05.142Z,18.70
2023-04-30T16:06:13.887Z,18.50
2023-04-30T16:10:22.660Z,18.40
2023-04-30T16:14:31.326Z,18.40
2023-04-30T16:18:40.980Z,18.40
2023-04-30T16:23:08.950Z,18.20
2023-04-30T16:27:17.602Z,18.10
2023-04-30T16:31:26.475Z,18.10
2023-04-30T16:35:35.355Z,18.00
2023-04-30T16:39:44.038Z,17.90
2023-04-30T16:43:52.596Z,17.80
2023-04-30T16:48:01.400Z,17.70
2023-04-30T16:52:10.290Z,17.60
2023-04-30T16:56:19.772Z,17.60
2023-04-30T17:00:28.565Z,17.50
2023-04-30T17:04:49.222Z,17.40
2023-04-30T17:08:58.216Z,17.40
2023-04-30T17:13:06.941Z,17.30
2023-04-30T17:17:16.340Z,17.20
2023-04-30T17:21:25.020Z,17.10
2023-04-30T17:25:33.759Z,17.10
2023-04-30T17:29:42.827Z,17.00
2023-04-30T17:33:51.397Z,17.00
2023-04-30T17:38:00.663Z,16.90
2023-04-30T17:42:09.981Z,16.90
2023-04-30T17:46:18.792Z,16.80
2023-04-30T17:50:27.480Z,16.70
2023-04-30T17:54:36.676Z,16.70
2023-04-30T17:58:45.759Z,16.60
2023-04-30T18:02:54.446Z,16.60
2023-04-30T18:07:03.071Z,16.50
2023-04-30T18:11:12.050Z,16.40
2023-04-30T18:15:20.687Z,16.40
2023-04-30T18:19:29.306Z,16.20
2023-04-30T18:23:37.940Z,16.20
2023-04-30T18:27:46.672Z,16.10
2023-04-30T18:31:56.686Z,16.00
2023-04-30T18:36:07.350Z,15.90
2023-04-30T18:40:16.237Z,15.80
2023-04-30T18:44:32.045Z,15.80
2023-04-30T18:48:40.866Z,15.70
2023-04-30T18:52:49.702Z,15.60
2023-04-30T18:56:58.547Z,15.60
2023-04-30T19:01:08.556Z,15.50
2023-04-30T19:05:18.165Z,15.40
2023-04-30T19:09:26.882Z,15.30
2023-04-30T19:13:54.962Z,15.30
2023-04-30T19:18:03.760Z,15.20
2023-04-30T19:22:12.528Z,15.10
2023-04-30T19:26:22.407Z,15.00
2023-04-30T19:30:56.595Z,14.90
2023-04-30T19:35:26.655Z,14.80
2023-04-30T19:39:36.396Z,14.70
2023-04-30T19:43:46.223Z,14.60
2023-04-30T19:47:55.187Z,14.60
2023-04-30T19:52:03.770Z,14.60
2023-04-30T19:56:12.464Z,14.50
2023-04-30T20:00:21.180Z,14.50
2023-04-30T20:04:30.529Z,14.30
2023-04-30T20:08:39.155Z,14.30
2023-04-30T20:12:48.861Z,14.30
2023-04-30T20:16:57.524Z,14.30
2023-04-30T20:21:06.182Z,14.20
2023-04-30T20:25:14.999Z,14.20
2023-04-30T20:29:23.635Z,14.10
2023-04-30T20:33:35.945Z,14.00
2023-04-30T20:37:44.679Z,14.00
2023-04-30T20:41:53.310Z,13.90
2023-04-30T20:46:02.037Z,13.90
2023-04-30T20:50:10.978Z,13.80
2023-04-30T20:54:19.624Z,13.80
2023-04-30T20:58:28.898Z,13.70
2023-04-30T21:02:37.947Z,13.70
2023-04-30T21:06:46.731Z,13.60
2023-04-30T21:10:56.884Z,13.60
2023-04-30T21:15:06.226Z,13.50
2023-04-30T21:19:14.801Z,13.40
2023-04-30T21:23:26.770Z,13.40
2023-04-30T21:27:54.747Z,13.30
2023-04-30T21:32:03.741Z,13.30
2023-04-30T21:36:12.785Z,13.30
2023-04-30T21:40:21.402Z,13.30
2023-04-30T21:44:32.921Z,13.30
2023-04-30T21:48:55.298Z,13.30
2023-04-30T21:53:05.465Z,13.20
2023-04-30T21:57:17.164Z,13.20
2023-04-30T22:01:28.796Z,13.10
2023-04-30T22:05:39.949Z,13.00
2023-04-30T22:10:08.259Z,13.00
2023-04-30T22:14:20.039Z,12.90
2023-04-30T22:18:28.627Z,13.00
2023-04-30T22:22:37.492Z,12.90
2023-04-30T22:26:46.110Z,12.90
2023-04-30T22:31:00.834Z,12.90
2023-04-30T22:35:30.873Z,12.80
2023-04-30T22:39:42.733Z,12.70
2023-04-30T22:44:13.738Z,12.70
2023-04-30T22:48:22.999Z,12.70
2023-04-30T22:52:35.353Z,12.60
2023-04-30T22:56:45.222Z,12.60
2023-04-30T23:00:56.934Z,12.60
2023-04-30T23:05:12.954Z,12.50
2023-04-30T23:09:21.636Z,12.50
2023-04-30T23:13:30.422Z,12.50
2023-04-30T23:17:39.081Z,12.50
2023-04-30T23:21:47.727Z,12.50
2023-04-30T23:25:56.806Z,12.40
2023-04-30T23:30:07.244Z,12.40
2023-04-30T23:34:16.440Z,12.30
2023-04-30T23:38:25.716Z,12.30
2023-04-30T23:42:34.725Z,12.30
2023-04-30T23:47:04.100Z,12.30
2023-04-30T23:51:16.802Z,12.20
2023-04-30T23:55:25.383Z,12.20
2023-04-30T23:59:35.800Z,12.10
